sensor_id;sensor_type;location;lat;lon;timestamp;pressure;altitude;pressure_sealevel;temperature;humidity
35649;BME280;21768;48.562;13.414;2023-04-10T00:01:35;98130.91;;;7.47;66.97
35649;BME280;21768;48.562;13.414;2023-04-10T00:04:01;98123.31;;;7.56;66.91
35649;BME280;21768;48.562;13.414;2023-04-10T00:06:27;98117.22;;;7.62;67.18
35649;BME280;21768;48.562;13.414;2023-04-10T00:08:53;98119.25;;;7.66;67.08
35649;BME280;21768;48.562;13.414;2023-04-10T00:11:18;98126.88;;;7.68;67.34
35649;BME280;21768;48.562;13.414;2023-04-10T00:13:44;98120.50;;;7.71;67.09
35649;BME280;21768;48.562;13.414;2023-04-10T00:16:10;98119.75;;;7.72;67.18
35649;BME280;21768;48.562;13.414;2023-04-10T00:18:35;98113.88;;;7.72;67.14
35649;BME280;21768;48.562;13.414;2023-04-10T00:21:02;98115.63;;;7.73;67.26
35649;BME280;21768;48.562;13.414;2023-04-10T00:23:28;98104.22;;;7.76;67.28
35649;BME280;21768;48.562;13.414;2023-04-10T00:25:56;98115.56;;;7.81;67.53
35649;BME280;21768;48.562;13.414;2023-04-10T00:28:21;98116.09;;;7.88;67.46
35649;BME280;21768;48.562;13.414;2023-04-10T00:30:47;98108.06;;;7.92;67.38
35649;BME280;21768;48.562;13.414;2023-04-10T00:33:13;98106.69;;;7.95;67.42
35649;BME280;21768;48.562;13.414;2023-04-10T00:35:38;98098.53;;;7.98;67.51
35649;BME280;21768;48.562;13.414;2023-04-10T00:38:04;98095.53;;;8.02;67.37
35649;BME280;21768;48.562;13.414;2023-04-10T00:40:29;98100.56;;;8.02;67.58
35649;BME280;21768;48.562;13.414;2023-04-10T00:42:55;98097.28;;;8.03;67.51
35649;BME280;21768;48.562;13.414;2023-04-10T00:45:21;98099.06;;;8.04;67.60
35649;BME280;21768;48.562;13.414;2023-04-10T00:47:47;98100.81;;;8.05;67.69
35649;BME280;21768;48.562;13.414;2023-04-10T00:50:12;98106.72;;;8.05;67.53
35649;BME280;21768;48.562;13.414;2023-04-10T00:52:38;98100.06;;;8.06;67.80
35649;BME280;21768;48.562;13.414;2023-04-10T00:55:04;98089.75;;;8.03;67.61
35649;BME280;21768;48.562;13.414;2023-04-10T00:57:30;98094.66;;;8.01;67.42
35649;BME280;21768;48.562;13.414;2023-04-10T00:59:56;98097.03;;;8.00;67.72
35649;BME280;21768;48.562;13.414;2023-04-10T01:02:22;98095.53;;;8.02;67.69
35649;BME280;21768;48.562;13.414;2023-04-10T01:04:47;98105.59;;;8.02;67.56
35649;BME280;21768;48.562;13.414;2023-04-10T01:15:12;98096.28;;;8.01;67.64
35649;BME280;21768;48.562;13.414;2023-04-10T01:20:35;98095.25;;;7.99;67.71
35649;BME280;21768;48.562;13.414;2023-04-10T01:23:11;98090.72;;;7.95;67.66
35649;BME280;21768;48.562;13.414;2023-04-10T01:29:00;98084.19;;;7.87;67.70
35649;BME280;21768;48.562;13.414;2023-04-10T01:33:59;98079.22;;;7.78;68.16
35649;BME280;21768;48.562;13.414;2023-04-10T01:36:31;98075.78;;;7.67;68.34
35649;BME280;21768;48.562;13.414;2023-04-10T01:38:59;98076.16;;;7.62;68.30
35649;BME280;21768;48.562;13.414;2023-04-10T01:41:25;98079.75;;;7.55;68.66
35649;BME280;21768;48.562;13.414;2023-04-10T01:43:52;98078.75;;;7.53;68.71
35649;BME280;21768;48.562;13.414;2023-04-10T01:46:20;98073.59;;;7.51;68.75
35649;BME280;21768;48.562;13.414;2023-04-10T01:48:46;98077.44;;;7.48;68.77
35649;BME280;21768;48.562;13.414;2023-04-10T01:51:12;98074.81;;;7.46;68.86
35649;BME280;21768;48.562;13.414;2023-04-10T01:53:39;98071.91;;;7.42;69.10
35649;BME280;21768;48.562;13.414;2023-04-10T01:56:07;98076.56;;;7.47;69.03
35649;BME280;21768;48.562;13.414;2023-04-10T01:58:34;98066.53;;;7.47;68.97
35649;BME280;21768;48.562;13.414;2023-04-10T02:01:00;98068.03;;;7.45;69.31
35649;BME280;21768;48.562;13.414;2023-04-10T02:03:26;98072.16;;;7.45;69.02
35649;BME280;21768;48.562;13.414;2023-04-10T02:12:06;98080.19;;;7.41;68.69
35649;BME280;21768;48.562;13.414;2023-04-10T02:14:37;98077.28;;;7.36;69.25
35649;BME280;21768;48.562;13.414;2023-04-10T02:17:03;98072.13;;;7.35;69.41
35649;BME280;21768;48.562;13.414;2023-04-10T02:19:33;98072.31;;;7.28;69.67
35649;BME280;21768;48.562;13.414;2023-04-10T02:22:00;98072.06;;;7.25;69.60
35649;BME280;21768;48.562;13.414;2023-04-10T02:24:27;98068.13;;;7.18;69.56
35649;BME280;21768;48.562;13.414;2023-04-10T02:26:53;98071.50;;;7.18;69.63
35649;BME280;21768;48.562;13.414;2023-04-10T02:29:19;98067.00;;;7.14;69.59
35649;BME280;21768;48.562;13.414;2023-04-10T02:31:45;98064.19;;;7.11;69.68
35649;BME280;21768;48.562;13.414;2023-04-10T02:34:11;98071.31;;;7.07;69.60
35649;BME280;21768;48.562;13.414;2023-04-10T02:36:38;98065.59;;;6.99;69.75
35649;BME280;21768;48.562;13.414;2023-04-10T02:39:05;98075.09;;;6.93;70.02
35649;BME280;21768;48.562;13.414;2023-04-10T02:41:31;98076.34;;;6.88;69.92
35649;BME280;21768;48.562;13.414;2023-04-10T02:43:56;98080.94;;;6.83;69.94
35649;BME280;21768;48.562;13.414;2023-04-10T02:46:22;98079.47;;;6.77;69.74
35649;BME280;21768;48.562;13.414;2023-04-10T02:48:47;98072.16;;;6.70;70.04
35649;BME280;21768;48.562;13.414;2023-04-10T02:51:13;98070.88;;;6.65;70.12
35649;BME280;21768;48.562;13.414;2023-04-10T02:53:39;98074.59;;;6.60;70.36
35649;BME280;21768;48.562;13.414;2023-04-10T02:56:04;98078.56;;;6.58;70.25
35649;BME280;21768;48.562;13.414;2023-04-10T02:58:33;98080.81;;;6.55;70.19
35649;BME280;21768;48.562;13.414;2023-04-10T03:01:00;98080.22;;;6.48;70.10
35649;BME280;21768;48.562;13.414;2023-04-10T03:03:26;98067.56;;;6.47;70.53
35649;BME280;21768;48.562;13.414;2023-04-10T03:05:52;98076.69;;;6.46;70.42
35649;BME280;21768;48.562;13.414;2023-04-10T03:08:17;98075.56;;;6.43;70.33
35649;BME280;21768;48.562;13.414;2023-04-10T03:10:44;98077.78;;;6.40;70.27
35649;BME280;21768;48.562;13.414;2023-04-10T03:13:10;98075.00;;;6.37;70.27
35649;BME280;21768;48.562;13.414;2023-04-10T03:15:36;98076.34;;;6.33;70.14
35649;BME280;21768;48.562;13.414;2023-04-10T03:18:03;98080.63;;;6.26;70.36
35649;BME280;21768;48.562;13.414;2023-04-10T03:20:30;98084.47;;;6.22;70.30
35649;BME280;21768;48.562;13.414;2023-04-10T03:22:57;98073.94;;;6.16;70.29
35649;BME280;21768;48.562;13.414;2023-04-10T03:25:23;98077.16;;;6.15;70.43
35649;BME280;21768;48.562;13.414;2023-04-10T03:27:48;98078.94;;;6.16;70.49
35649;BME280;21768;48.562;13.414;2023-04-10T03:30:14;98075.13;;;6.11;70.47
35649;BME280;21768;48.562;13.414;2023-04-10T03:32:41;98074.09;;;6.09;70.44
35649;BME280;21768;48.562;13.414;2023-04-10T03:35:08;98073.50;;;6.03;70.39
35649;BME280;21768;48.562;13.414;2023-04-10T03:37:34;98078.09;;;5.98;70.54
35649;BME280;21768;48.562;13.414;2023-04-10T03:39:59;98080.44;;;5.97;70.63
35649;BME280;21768;48.562;13.414;2023-04-10T03:42:25;98076.91;;;5.95;70.81
35649;BME280;21768;48.562;13.414;2023-04-10T03:44:51;98076.53;;;5.90;70.96
35649;BME280;21768;48.562;13.414;2023-04-10T03:47:16;98079.28;;;5.85;71.00
35649;BME280;21768;48.562;13.414;2023-04-10T03:49:42;98071.50;;;5.81;71.08
35649;BME280;21768;48.562;13.414;2023-04-10T03:52:07;98071.66;;;5.74;71.23
35649;BME280;21768;48.562;13.414;2023-04-10T03:54:33;98081.38;;;5.71;71.23
35649;BME280;21768;48.562;13.414;2023-04-10T03:57:01;98082.84;;;5.69;71.34
35649;BME280;21768;48.562;13.414;2023-04-10T03:59:27;98079.34;;;5.67;71.68
35649;BME280;21768;48.562;13.414;2023-04-10T04:01:52;98079.34;;;5.67;71.89
35649;BME280;21768;48.562;13.414;2023-04-10T04:04:18;98075.81;;;5.65;71.68
35649;BME280;21768;48.562;13.414;2023-04-10T04:06:43;98077.28;;;5.63;71.91
35649;BME280;21768;48.562;13.414;2023-04-10T04:09:09;98082.00;;;5.60;71.87
35649;BME280;21768;48.562;13.414;2023-04-10T04:11:34;98094.38;;;5.59;71.91
35649;BME280;21768;48.562;13.414;2023-04-10T04:14:01;98098.63;;;5.60;71.94
35649;BME280;21768;48.562;13.414;2023-04-10T04:16:27;98094.50;;;5.60;72.26
35649;BME280;21768;48.562;13.414;2023-04-10T04:18:52;98098.78;;;5.61;72.41
35649;BME280;21768;48.562;13.414;2023-04-10T04:21:18;98092.00;;;5.60;72.42
35649;BME280;21768;48.562;13.414;2023-04-10T04:23:43;98090.69;;;5.55;72.17
35649;BME280;21768;48.562;13.414;2023-04-10T04:26:09;98091.13;;;5.51;72.38
35649;BME280;21768;48.562;13.414;2023-04-10T04:28:34;98094.94;;;5.47;72.49
35649;BME280;21768;48.562;13.414;2023-04-10T04:31:00;98096.56;;;5.47;72.36
35649;BME280;21768;48.562;13.414;2023-04-10T04:33:26;98094.53;;;5.43;72.63
35649;BME280;21768;48.562;13.414;2023-04-10T04:35:52;98094.06;;;5.47;72.48
35649;BME280;21768;48.562;13.414;2023-04-10T04:38:17;98098.03;;;5.45;72.38
35649;BME280;21768;48.562;13.414;2023-04-10T04:40:44;98096.41;;;5.45;72.48
35649;BME280;21768;48.562;13.414;2023-04-10T04:43:10;98095.84;;;5.48;72.47
35649;BME280;21768;48.562;13.414;2023-04-10T04:45:35;98093.19;;;5.55;72.20
35649;BME280;21768;48.562;13.414;2023-04-10T04:48:01;98105.84;;;5.57;72.16
35649;BME280;21768;48.562;13.414;2023-04-10T04:50:27;98107.16;;;5.62;72.39
35649;BME280;21768;48.562;13.414;2023-04-10T04:52:53;98107.31;;;5.63;71.94
35649;BME280;21768;48.562;13.414;2023-04-10T04:55:19;98113.50;;;5.67;71.99
35649;BME280;21768;48.562;13.414;2023-04-10T04:57:44;98107.63;;;5.66;72.13
35649;BME280;21768;48.562;13.414;2023-04-10T05:00:10;98109.53;;;5.69;71.94
35649;BME280;21768;48.562;13.414;2023-04-10T05:02:35;98115.81;;;5.74;72.09
35649;BME280;21768;48.562;13.414;2023-04-10T05:05:01;98109.34;;;5.76;72.18
35649;BME280;21768;48.562;13.414;2023-04-10T05:07:27;98109.94;;;5.82;71.92
35649;BME280;21768;48.562;13.414;2023-04-10T05:09:53;98116.13;;;5.86;71.68
35649;BME280;21768;48.562;13.414;2023-04-10T05:12:18;98120.53;;;5.79;71.64
35649;BME280;21768;48.562;13.414;2023-04-10T05:14:44;98118.75;;;5.78;71.90
35649;BME280;21768;48.562;13.414;2023-04-10T05:17:10;98120.25;;;5.94;71.75
35649;BME280;21768;48.562;13.414;2023-04-10T05:19:35;98115.19;;;6.11;71.54
35649;BME280;21768;48.562;13.414;2023-04-10T05:22:01;98116.31;;;6.23;71.27
35649;BME280;21768;48.562;13.414;2023-04-10T05:24:27;98113.66;;;6.30;71.36
35649;BME280;21768;48.562;13.414;2023-04-10T05:26:52;98109.94;;;6.35;71.44
35649;BME280;21768;48.562;13.414;2023-04-10T05:29:18;98110.22;;;6.38;71.63
35649;BME280;21768;48.562;13.414;2023-04-10T05:31:43;98115.66;;;6.43;71.70
35649;BME280;21768;48.562;13.414;2023-04-10T05:34:09;98120.34;;;6.48;71.38
35649;BME280;21768;48.562;13.414;2023-04-10T05:36:35;98120.44;;;6.59;71.46
35649;BME280;21768;48.562;13.414;2023-04-10T05:39:01;98123.53;;;6.65;71.45
35649;BME280;21768;48.562;13.414;2023-04-10T05:41:26;98132.59;;;6.73;71.37
35649;BME280;21768;48.562;13.414;2023-04-10T05:43:52;98131.97;;;6.84;71.38
35649;BME280;21768;48.562;13.414;2023-04-10T05:46:17;98130.19;;;6.83;71.11
35649;BME280;21768;48.562;13.414;2023-04-10T05:48:43;98137.25;;;6.87;71.02
35649;BME280;21768;48.562;13.414;2023-04-10T05:51:08;98129.59;;;6.86;71.31
35649;BME280;21768;48.562;13.414;2023-04-10T05:53:34;98137.69;;;6.92;71.32
35649;BME280;21768;48.562;13.414;2023-04-10T05:55:59;98137.63;;;7.00;71.00
35649;BME280;21768;48.562;13.414;2023-04-10T05:58:27;98131.25;;;7.04;71.15
35649;BME280;21768;48.562;13.414;2023-04-10T06:00:52;98126.50;;;7.07;71.21
35649;BME280;21768;48.562;13.414;2023-04-10T06:03:18;98136.97;;;7.11;70.93
35649;BME280;21768;48.562;13.414;2023-04-10T06:05:44;98132.59;;;7.19;70.92
35649;BME280;21768;48.562;13.414;2023-04-10T06:08:10;98135.81;;;7.27;70.72
35649;BME280;21768;48.562;13.414;2023-04-10T06:10:36;98128.88;;;7.43;70.32
35649;BME280;21768;48.562;13.414;2023-04-10T06:13:02;98137.50;;;7.55;70.13
35649;BME280;21768;48.562;13.414;2023-04-10T06:15:28;98133.94;;;7.72;69.48
35649;BME280;21768;48.562;13.414;2023-04-10T06:17:53;98143.94;;;7.80;69.36
35649;BME280;21768;48.562;13.414;2023-04-10T06:20:19;98155.47;;;7.78;69.18
35649;BME280;21768;48.562;13.414;2023-04-10T06:22:45;98147.94;;;7.78;69.45
35649;BME280;21768;48.562;13.414;2023-04-10T06:25:11;98147.72;;;7.85;69.39
35649;BME280;21768;48.562;13.414;2023-04-10T06:27:38;98141.09;;;7.96;69.23
35649;BME280;21768;48.562;13.414;2023-04-10T06:30:04;98142.31;;;8.10;68.83
35649;BME280;21768;48.562;13.414;2023-04-10T06:32:30;98141.84;;;8.24;68.64
35649;BME280;21768;48.562;13.414;2023-04-10T06:34:56;98139.72;;;8.29;68.69
35649;BME280;21768;48.562;13.414;2023-04-10T06:37:28;98141.03;;;8.34;68.39
35649;BME280;21768;48.562;13.414;2023-04-10T06:40:06;98132.63;;;8.43;68.06
35649;BME280;21768;48.562;13.414;2023-04-10T06:42:32;98141.63;;;8.60;67.83
35649;BME280;21768;48.562;13.414;2023-04-10T06:44:58;98144.00;;;8.69;67.75
35649;BME280;21768;48.562;13.414;2023-04-10T06:47:24;98143.16;;;8.78;67.49
35649;BME280;21768;48.562;13.414;2023-04-10T06:49:50;98138.50;;;8.83;67.04
35649;BME280;21768;48.562;13.414;2023-04-10T06:52:18;98137.13;;;8.86;67.08
35649;BME280;21768;48.562;13.414;2023-04-10T06:54:43;98134.75;;;8.88;66.94
35649;BME280;21768;48.562;13.414;2023-04-10T06:57:09;98132.47;;;8.81;67.29
35649;BME280;21768;48.562;13.414;2023-04-10T06:59:34;98132.97;;;8.77;67.45
35649;BME280;21768;48.562;13.414;2023-04-10T07:02:02;98139.50;;;8.75;67.74
35649;BME280;21768;48.562;13.414;2023-04-10T07:04:28;98131.84;;;8.83;67.80
35649;BME280;21768;48.562;13.414;2023-04-10T07:06:53;98123.66;;;8.96;68.03
35649;BME280;21768;48.562;13.414;2023-04-10T07:09:19;98122.91;;;9.07;67.71
35649;BME280;21768;48.562;13.414;2023-04-10T07:11:44;98116.75;;;9.14;67.44
35649;BME280;21768;48.562;13.414;2023-04-10T07:14:10;98124.28;;;9.24;67.46
35649;BME280;21768;48.562;13.414;2023-04-10T07:16:35;98115.34;;;9.38;67.31
35649;BME280;21768;48.562;13.414;2023-04-10T07:19:01;98118.06;;;9.51;66.80
35649;BME280;21768;48.562;13.414;2023-04-10T07:21:27;98117.31;;;9.62;66.63
35649;BME280;21768;48.562;13.414;2023-04-10T07:23:53;98112.97;;;9.71;66.77
35649;BME280;21768;48.562;13.414;2023-04-10T07:26:18;98107.53;;;9.87;66.59
35649;BME280;21768;48.562;13.414;2023-04-10T07:28:44;98109.09;;;10.07;66.38
35649;BME280;21768;48.562;13.414;2023-04-10T07:31:13;98116.56;;;10.27;66.10
35649;BME280;21768;48.562;13.414;2023-04-10T07:33:39;98101.84;;;10.43;65.51
35649;BME280;21768;48.562;13.414;2023-04-10T07:36:05;98111.59;;;10.61;65.77
35649;BME280;21768;48.562;13.414;2023-04-10T07:38:33;98113.50;;;10.75;65.16
35649;BME280;21768;48.562;13.414;2023-04-10T07:40:58;98109.28;;;10.97;64.92
35649;BME280;21768;48.562;13.414;2023-04-10T07:43:24;98103.84;;;11.14;63.89
35649;BME280;21768;48.562;13.414;2023-04-10T07:45:51;98104.44;;;11.34;63.03
35649;BME280;21768;48.562;13.414;2023-04-10T07:48:18;98106.66;;;11.52;62.78
35649;BME280;21768;48.562;13.414;2023-04-10T07:50:43;98103.25;;;11.75;62.12
35649;BME280;21768;48.562;13.414;2023-04-10T07:53:09;98096.88;;;12.04;60.86
35649;BME280;21768;48.562;13.414;2023-04-10T07:55:41;98096.84;;;12.27;59.99
35649;BME280;21768;48.562;13.414;2023-04-10T07:58:07;98095.00;;;12.49;59.72
35649;BME280;21768;48.562;13.414;2023-04-10T08:00:33;98093.38;;;12.75;58.27
35649;BME280;21768;48.562;13.414;2023-04-10T08:02:59;98094.78;;;12.96;57.29
35649;BME280;21768;48.562;13.414;2023-04-10T08:05:25;98099.97;;;13.22;56.90
35649;BME280;21768;48.562;13.414;2023-04-10T08:07:51;98088.72;;;13.57;56.25
35649;BME280;21768;48.562;13.414;2023-04-10T08:10:18;98080.44;;;14.14;54.84
35649;BME280;21768;48.562;13.414;2023-04-10T08:12:43;98092.16;;;15.23;51.85
35649;BME280;21768;48.562;13.414;2023-04-10T08:15:09;98082.56;;;17.04;48.34
35649;BME280;21768;48.562;13.414;2023-04-10T08:17:35;98073.00;;;18.98;43.85
35649;BME280;21768;48.562;13.414;2023-04-10T08:20:02;98071.75;;;19.91;41.53
35649;BME280;21768;48.562;13.414;2023-04-10T08:22:28;98070.81;;;20.33;39.91
35649;BME280;21768;48.562;13.414;2023-04-10T08:24:54;98076.28;;;21.13;38.54
35649;BME280;21768;48.562;13.414;2023-04-10T08:27:20;98069.97;;;22.34;37.04
35649;BME280;21768;48.562;13.414;2023-04-10T08:29:45;98065.38;;;22.83;35.45
35649;BME280;21768;48.562;13.414;2023-04-10T08:32:11;98073.56;;;22.39;36.77
35649;BME280;21768;48.562;13.414;2023-04-10T08:34:36;98071.75;;;22.65;35.52
35649;BME280;21768;48.562;13.414;2023-04-10T08:37:05;98072.88;;;21.90;36.09
35649;BME280;21768;48.562;13.414;2023-04-10T08:39:35;98074.81;;;21.70;35.97
35649;BME280;21768;48.562;13.414;2023-04-10T08:42:01;98066.97;;;22.78;34.43
35649;BME280;21768;48.562;13.414;2023-04-10T08:44:27;98072.72;;;22.99;33.63
35649;BME280;21768;48.562;13.414;2023-04-10T08:46:57;98069.13;;;22.94;32.58
35649;BME280;21768;48.562;13.414;2023-04-10T08:49:40;98071.56;;;22.59;33.37
35649;BME280;21768;48.562;13.414;2023-04-10T08:52:13;98067.22;;;22.87;33.83
35649;BME280;21768;48.562;13.414;2023-04-10T08:54:40;98071.50;;;23.85;32.48
35649;BME280;21768;48.562;13.414;2023-04-10T08:57:09;98064.47;;;24.95;31.17
35649;BME280;21768;48.562;13.414;2023-04-10T08:59:41;98067.16;;;24.61;31.63
35649;BME280;21768;48.562;13.414;2023-04-10T09:02:07;98062.50;;;25.30;31.00
35649;BME280;21768;48.562;13.414;2023-04-10T09:04:33;98057.56;;;26.57;27.93
35649;BME280;21768;48.562;13.414;2023-04-10T09:06:59;98055.50;;;27.97;26.61
35649;BME280;21768;48.562;13.414;2023-04-10T09:09:24;98055.88;;;28.59;25.49
35649;BME280;21768;48.562;13.414;2023-04-10T09:14:32;98048.13;;;28.73;24.53
35649;BME280;21768;48.562;13.414;2023-04-10T09:19:45;98041.41;;;30.12;22.81
35649;BME280;21768;48.562;13.414;2023-04-10T09:22:11;98041.38;;;29.31;23.89
35649;BME280;21768;48.562;13.414;2023-04-10T09:24:39;98058.41;;;28.47;23.71
35649;BME280;21768;48.562;13.414;2023-04-10T09:27:07;98053.81;;;27.05;26.13
35649;BME280;21768;48.562;13.414;2023-04-10T09:29:46;98055.19;;;26.72;26.95
35649;BME280;21768;48.562;13.414;2023-04-10T09:32:44;98044.28;;;27.96;26.08
35649;BME280;21768;48.562;13.414;2023-04-10T09:35:12;98044.03;;;29.43;23.60
35649;BME280;21768;48.562;13.414;2023-04-10T09:37:40;98052.06;;;27.95;24.35
35649;BME280;21768;48.562;13.414;2023-04-10T09:40:23;98041.75;;;25.77;26.80
35649;BME280;21768;48.562;13.414;2023-04-10T09:42:49;98042.28;;;23.52;29.23
35649;BME280;21768;48.562;13.414;2023-04-10T09:45:16;98042.16;;;21.66;31.22
35649;BME280;21768;48.562;13.414;2023-04-10T09:48:05;98049.53;;;21.06;33.09
35649;BME280;21768;48.562;13.414;2023-04-10T09:50:38;98045.31;;;21.32;33.22
35649;BME280;21768;48.562;13.414;2023-04-10T09:53:17;98031.50;;;21.04;32.63
35649;BME280;21768;48.562;13.414;2023-04-10T09:55:45;98042.69;;;21.30;31.71
35649;BME280;21768;48.562;13.414;2023-04-10T09:58:12;98027.53;;;22.19;30.23
35649;BME280;21768;48.562;13.414;2023-04-10T10:00:39;98033.50;;;23.09;30.75
35649;BME280;21768;48.562;13.414;2023-04-10T10:03:12;98014.09;;;26.32;25.40
35649;BME280;21768;48.562;13.414;2023-04-10T10:05:42;98022.94;;;28.51;22.98
35649;BME280;21768;48.562;13.414;2023-04-10T10:08:12;98020.59;;;29.91;21.14
35649;BME280;21768;48.562;13.414;2023-04-10T10:13:08;98005.44;;;32.05;17.36
35649;BME280;21768;48.562;13.414;2023-04-10T10:15:53;98001.94;;;32.06;17.00
35649;BME280;21768;48.562;13.414;2023-04-10T10:18:44;98009.69;;;32.17;17.05
35649;BME280;21768;48.562;13.414;2023-04-10T10:21:12;97999.75;;;29.85;18.03
35649;BME280;21768;48.562;13.414;2023-04-10T10:23:40;98004.06;;;30.11;18.22
35649;BME280;21768;48.562;13.414;2023-04-10T10:26:09;97997.56;;;31.11;16.34
35649;BME280;21768;48.562;13.414;2023-04-10T10:28:35;98001.22;;;30.74;16.00
35649;BME280;21768;48.562;13.414;2023-04-10T10:31:05;97991.66;;;30.74;15.22
35649;BME280;21768;48.562;13.414;2023-04-10T10:33:31;97996.13;;;28.58;17.04
35649;BME280;21768;48.562;13.414;2023-04-10T10:36:00;98005.91;;;26.66;17.58
35649;BME280;21768;48.562;13.414;2023-04-10T10:38:26;97997.34;;;26.72;18.84
35649;BME280;21768;48.562;13.414;2023-04-10T10:41:11;97997.91;;;28.65;18.28
35649;BME280;21768;48.562;13.414;2023-04-10T10:43:54;97958.16;;;28.90;18.61
35649;BME280;21768;48.562;13.414;2023-04-10T10:46:36;97968.56;;;29.34;17.75
35649;BME280;21768;48.562;13.414;2023-04-10T10:49:04;97969.28;;;30.28;16.63
35649;BME280;21768;48.562;13.414;2023-04-10T10:54:34;97958.94;;;33.56;15.46
35649;BME280;21768;48.562;13.414;2023-04-10T10:57:01;97949.13;;;34.56;13.51
35649;BME280;21768;48.562;13.414;2023-04-10T11:02:15;97950.22;;;36.22;12.50
35649;BME280;21768;48.562;13.414;2023-04-10T11:07:07;97950.78;;;37.20;11.74
35649;BME280;21768;48.562;13.414;2023-04-10T11:12:15;97926.28;;;37.17;12.18
35649;BME280;21768;48.562;13.414;2023-04-10T11:14:42;97932.44;;;34.60;13.15
35649;BME280;21768;48.562;13.414;2023-04-10T11:17:09;97932.97;;;32.24;13.71
35649;BME280;21768;48.562;13.414;2023-04-10T11:20:11;97925.09;;;30.06;15.62
35649;BME280;21768;48.562;13.414;2023-04-10T11:23:05;97926.09;;;29.60;16.61
35649;BME280;21768;48.562;13.414;2023-04-10T11:25:47;97907.81;;;28.46;16.79
35649;BME280;21768;48.562;13.414;2023-04-10T11:33:39;97913.31;;;27.39;17.40
35649;BME280;21768;48.562;13.414;2023-04-10T11:36:05;97912.31;;;25.65;19.12
35649;BME280;21768;48.562;13.414;2023-04-10T11:38:32;97916.63;;;23.76;21.84
35649;BME280;21768;48.562;13.414;2023-04-10T11:41:01;97908.00;;;22.36;22.17
35649;BME280;21768;48.562;13.414;2023-04-10T11:43:28;97903.13;;;21.85;24.75
35649;BME280;21768;48.562;13.414;2023-04-10T11:46:05;97898.97;;;21.32;24.83
35649;BME280;21768;48.562;13.414;2023-04-10T11:48:32;97901.38;;;21.00;25.52
35649;BME280;21768;48.562;13.414;2023-04-10T11:50:58;97905.03;;;20.82;24.30
35649;BME280;21768;48.562;13.414;2023-04-10T11:53:26;97900.69;;;20.54;24.76
35649;BME280;21768;48.562;13.414;2023-04-10T11:55:52;97899.94;;;19.86;26.96
35649;BME280;21768;48.562;13.414;2023-04-10T11:58:24;97909.88;;;19.77;26.66
35649;BME280;21768;48.562;13.414;2023-04-10T12:05:57;97895.78;;;19.66;26.92
35649;BME280;21768;48.562;13.414;2023-04-10T12:08:34;97884.03;;;19.71;28.12
35649;BME280;21768;48.562;13.414;2023-04-10T12:11:00;97887.19;;;19.88;27.51
35649;BME280;21768;48.562;13.414;2023-04-10T12:13:29;97863.75;;;19.53;27.23
35649;BME280;21768;48.562;13.414;2023-04-10T12:16:00;97858.56;;;19.29;27.77
35649;BME280;21768;48.562;13.414;2023-04-10T12:18:27;97853.63;;;19.35;28.90
35649;BME280;21768;48.562;13.414;2023-04-10T12:20:54;97864.75;;;19.36;28.29
35649;BME280;21768;48.562;13.414;2023-04-10T12:23:25;97862.50;;;18.78;28.50
35649;BME280;21768;48.562;13.414;2023-04-10T12:25:51;97852.66;;;18.26;29.70
35649;BME280;21768;48.562;13.414;2023-04-10T12:28:21;97858.84;;;17.93;29.44
35649;BME280;21768;48.562;13.414;2023-04-10T12:30:51;97841.88;;;17.74;30.99
35649;BME280;21768;48.562;13.414;2023-04-10T12:33:21;97849.38;;;18.10;31.12
35649;BME280;21768;48.562;13.414;2023-04-10T12:35:47;97839.13;;;18.29;31.27
35649;BME280;21768;48.562;13.414;2023-04-10T12:38:13;97837.38;;;18.28;29.03
35649;BME280;21768;48.562;13.414;2023-04-10T12:40:58;97816.44;;;18.16;29.20
35649;BME280;21768;48.562;13.414;2023-04-10T12:46:04;97820.50;;;17.91;29.82
35649;BME280;21768;48.562;13.414;2023-04-10T12:48:33;97815.94;;;18.04;30.04
35649;BME280;21768;48.562;13.414;2023-04-10T12:50:59;97812.03;;;17.92;29.07
35649;BME280;21768;48.562;13.414;2023-04-10T12:53:25;97804.53;;;17.76;28.75
35649;BME280;21768;48.562;13.414;2023-04-10T12:56:03;97802.31;;;17.64;29.07
35649;BME280;21768;48.562;13.414;2023-04-10T12:58:29;97799.66;;;17.63;28.82
35649;BME280;21768;48.562;13.414;2023-04-10T13:01:03;97806.00;;;17.71;28.95
35649;BME280;21768;48.562;13.414;2023-04-10T13:03:30;97810.34;;;17.54;29.51
35649;BME280;21768;48.562;13.414;2023-04-10T13:05:57;97807.97;;;17.59;30.32
35649;BME280;21768;48.562;13.414;2023-04-10T13:08:23;97807.31;;;17.63;29.98
35649;BME280;21768;48.562;13.414;2023-04-10T13:10:48;97795.22;;;17.59;29.73
35649;BME280;21768;48.562;13.414;2023-04-10T13:13:15;97799.34;;;17.75;31.19
35649;BME280;21768;48.562;13.414;2023-04-10T13:15:41;97796.03;;;17.96;30.63
35649;BME280;21768;48.562;13.414;2023-04-10T13:18:07;97795.00;;;18.12;28.81
35649;BME280;21768;48.562;13.414;2023-04-10T13:20:33;97781.53;;;17.95;28.57
35649;BME280;21768;48.562;13.414;2023-04-10T13:23:00;97792.94;;;17.84;29.49
35649;BME280;21768;48.562;13.414;2023-04-10T13:25:30;97778.44;;;17.64;29.04
35649;BME280;21768;48.562;13.414;2023-04-10T13:27:56;97775.00;;;17.83;30.00
35649;BME280;21768;48.562;13.414;2023-04-10T13:30:22;97779.78;;;17.94;29.26
35649;BME280;21768;48.562;13.414;2023-04-10T13:32:48;97772.13;;;17.94;29.12
35649;BME280;21768;48.562;13.414;2023-04-10T13:35:13;97771.63;;;18.03;30.21
35649;BME280;21768;48.562;13.414;2023-04-10T13:37:39;97768.22;;;18.02;30.51
35649;BME280;21768;48.562;13.414;2023-04-10T13:40:05;97764.84;;;18.04;30.50
35649;BME280;21768;48.562;13.414;2023-04-10T13:42:32;97763.09;;;18.23;31.10
35649;BME280;21768;48.562;13.414;2023-04-10T13:44:57;97762.84;;;18.38;28.53
35649;BME280;21768;48.562;13.414;2023-04-10T13:47:22;97755.13;;;18.36;28.18
35649;BME280;21768;48.562;13.414;2023-04-10T13:49:48;97754.84;;;18.29;28.41
35649;BME280;21768;48.562;13.414;2023-04-10T13:52:13;97754.25;;;18.36;29.40